Time;durP1;ratioP1;P1;durP2;ratioP2;P2;SDS_P1;SDS_P2;PMS_P1;PMS_P2;Temp;Humidity;BMP_temperature;BMP_pressure;BME280_temperature;BME280_humidity;BME280_pressure;Samples;Min_cycle;Max_cycle;Signal;HPM_P1;HPM_P2
2023/09/28 00:02:56;;;;;;;9.32;5.50;;;14.40;63.00;;;;;;5056504;28;20052;-85
2023/09/28 00:05:22;;;;;;;6.78;4.90;;;14.40;62.50;;;;;;5056622;28;20024;-77
2023/09/28 00:07:49;;;;;;;5.47;4.78;;;14.40;61.80;;;;;;5056443;28;20033;-78
2023/09/28 00:10:16;;;;;;;7.65;5.30;;;14.40;61.30;;;;;;5056569;28;20017;-83
2023/09/28 00:12:49;;;;;;;8.38;5.00;;;14.30;61.10;;;;;;5056587;28;20031;-78
2023/09/28 00:15:16;;;;;;;8.75;4.60;;;14.30;60.50;;;;;;5056309;28;20060;-73
2023/09/28 00:17:42;;;;;;;6.57;4.88;;;14.40;60.50;;;;;;5056226;28;20029;-89
2023/09/28 00:20:13;;;;;;;6.15;4.32;;;14.40;61.20;;;;;;5055004;28;20036;-80
2023/09/28 00:22:42;;;;;;;6.32;4.43;;;14.30;59.90;;;;;;5063514;28;20104;-76
2023/09/28 00:25:11;;;;;;;6.38;4.63;;;14.30;60.10;;;;;;5067694;28;20128;-74
2023/09/28 00:27:46;;;;;;;5.22;4.15;;;14.20;59.90;;;;;;5066655;28;20469;-80
2023/09/28 00:30:15;;;;;;;7.53;4.70;;;14.30;60.10;;;;;;5067162;28;20013;-74
2023/09/28 00:32:43;;;;;;;6.32;4.88;;;14.40;60.80;;;;;;5069508;28;20029;-80
2023/09/28 00:35:10;;;;;;;7.07;4.60;;;14.40;60.90;;;;;;5074622;28;20059;-83
2023/09/28 00:37:35;;;;;;;8.20;4.80;;;14.40;60.40;;;;;;5073846;28;20041;-87
2023/09/28 00:40:08;;;;;;;7.50;4.35;;;14.30;60.00;;;;;;5064358;28;20473;-89
2023/09/28 00:42:34;;;;;;;6.10;4.80;;;14.30;59.60;;;;;;5061155;28;20048;-85
2023/09/28 00:45:00;;;;;;;7.47;5.00;;;14.20;59.30;;;;;;5058319;28;20020;-87
2023/09/28 00:47:26;;;;;;;5.38;4.55;;;14.10;57.80;;;;;;5058460;28;20555;-86
2023/09/28 00:49:52;;;;;;;7.03;4.95;;;14.20;58.50;;;;;;5057780;28;20021;-81
2023/09/28 00:52:18;;;;;;;6.95;4.60;;;14.10;59.00;;;;;;5058730;28;20079;-90
2023/09/28 00:54:46;;;;;;;5.60;4.30;;;14.10;58.80;;;;;;5057388;28;20033;-87
2023/09/28 00:57:13;;;;;;;6.78;4.72;;;14.10;58.20;;;;;;5057059;28;20561;-89
2023/09/28 00:59:39;;;;;;;5.40;4.30;;;14.00;57.70;;;;;;5056849;28;20501;-88
2023/09/28 01:02:06;;;;;;;6.60;4.38;;;14.00;56.50;;;;;;5056706;28;20021;-83
2023/09/28 01:04:32;;;;;;;7.63;4.40;;;14.00;56.80;;;;;;5055947;28;20108;-88
2023/09/28 01:06:57;;;;;;;8.23;4.30;;;14.00;55.50;;;;;;5055934;28;20063;-88
2023/09/28 01:09:24;;;;;;;7.43;4.75;;;13.90;55.80;;;;;;5055747;28;20036;-88
2023/09/28 01:11:51;;;;;;;8.77;4.60;;;14.00;56.20;;;;;;5055821;28;20013;-84
2023/09/28 01:14:17;;;;;;;5.03;4.53;;;14.00;56.90;;;;;;5056130;28;20036;-87
2023/09/28 01:16:43;;;;;;;5.95;4.68;;;13.90;57.00;;;;;;5056897;28;20021;-89
2023/09/28 01:19:09;;;;;;;6.10;4.00;;;13.90;56.30;;;;;;5057058;28;20036;-86
2023/09/28 01:21:34;;;;;;;8.85;4.55;;;13.90;56.30;;;;;;5057775;28;20105;-86
2023/09/28 01:24:02;;;;;;;5.68;4.20;;;13.90;55.90;;;;;;5057305;28;20056;-86
2023/09/28 01:26:30;;;;;;;6.97;3.88;;;13.80;55.80;;;;;;5057090;28;20021;-90
2023/09/28 01:28:57;;;;;;;8.20;4.15;;;13.70;56.00;;;;;;5056596;28;20052;-83
2023/09/28 01:31:23;;;;;;;5.90;4.15;;;13.70;54.70;;;;;;5058290;28;20032;-85
2023/09/28 01:33:48;;;;;;;4.68;3.75;;;13.70;55.50;;;;;;5065812;28;20025;-84
2023/09/28 01:36:14;;;;;;;5.95;4.30;;;13.70;54.80;;;;;;5044291;28;20362;-85
2023/09/28 01:38:46;;;;;;;5.65;4.00;;;13.70;55.20;;;;;;5057104;28;20056;-87
2023/09/28 01:41:11;;;;;;;7.47;4.50;;;13.70;55.20;;;;;;5068297;28;20039;-75
2023/09/28 01:43:37;;;;;;;5.53;4.03;;;13.70;55.40;;;;;;5060010;28;20041;-78
2023/09/28 01:46:02;;;;;;;5.45;3.60;;;13.70;55.10;;;;;;5077717;28;20143;-82
2023/09/28 01:48:28;;;;;;;7.35;4.50;;;13.70;55.20;;;;;;5043351;28;20033;-90
2023/09/28 01:50:54;;;;;;;5.53;3.63;;;13.60;54.90;;;;;;5055959;28;20021;-89
2023/09/28 01:53:19;;;;;;;9.85;4.68;;;13.60;54.70;;;;;;5055567;28;20474;-89
2023/09/28 01:55:47;;;;;;;4.40;3.50;;;13.60;54.50;;;;;;5055384;28;20036;-90
2023/09/28 01:58:12;;;;;;;6.00;3.70;;;13.60;54.10;;;;;;5055321;28;20112;-89
2023/09/28 02:00:38;;;;;;;5.80;3.85;;;13.60;54.50;;;;;;5055947;28;20075;-87
2023/09/28 02:03:05;;;;;;;8.68;3.63;;;13.60;54.00;;;;;;5055776;28;20043;-86
2023/09/28 02:05:34;;;;;;;5.38;4.00;;;13.60;54.50;;;;;;5056016;28;20044;-88
2023/09/28 02:08:02;;;;;;;6.90;4.28;;;13.60;53.70;;;;;;5055690;28;20017;-88
2023/09/28 02:10:28;;;;;;;6.72;3.85;;;13.60;53.70;;;;;;5054782;28;20028;-84
2023/09/28 02:12:55;;;;;;;5.57;3.97;;;13.60;54.00;;;;;;5055630;28;20017;-87
2023/09/28 02:15:23;;;;;;;5.13;3.40;;;13.60;54.20;;;;;;5054814;28;20037;-87
2023/09/28 02:17:49;;;;;;;7.95;4.00;;;13.60;55.00;;;;;;5055420;28;20020;-90
2023/09/28 02:20:16;;;;;;;5.57;4.28;;;13.60;54.90;;;;;;5054856;28;20040;-85
2023/09/28 02:22:46;;;;;;;4.28;3.60;;;13.60;54.10;;;;;;5055507;28;20012;-86
2023/09/28 02:25:17;;;;;;;6.22;4.30;;;13.60;53.50;;;;;;5056971;28;20033;-87
2023/09/28 02:27:44;;;;;;;5.03;3.78;;;13.70;53.70;;;;;;5056265;28;20028;-85
2023/09/28 02:30:20;;;;;;;14.23;8.43;;;13.70;53.60;;;;;;5056582;28;20025;-82
2023/09/28 02:32:50;;;;;;;8.57;4.45;;;13.60;53.80;;;;;;5054650;28;20068;-83
2023/09/28 02:35:16;;;;;;;7.13;3.70;;;13.60;53.30;;;;;;5054772;28;20025;-87
2023/09/28 02:37:44;;;;;;;6.68;4.90;;;13.70;53.50;;;;;;5054053;28;20017;-86
2023/09/28 02:40:12;;;;;;;7.18;4.72;;;13.70;53.50;;;;;;5054781;28;20055;-87
2023/09/28 02:42:38;;;;;;;11.23;5.20;;;13.70;54.30;;;;;;5054241;28;20420;-89
2023/09/28 02:45:11;;;;;;;5.75;4.40;;;13.60;54.90;;;;;;5054111;28;20029;-83
2023/09/28 02:47:40;;;;;;;6.82;4.05;;;13.60;55.60;;;;;;5054286;28;20071;-87
2023/09/28 02:50:09;;;;;;;7.43;4.20;;;13.50;56.00;;;;;;5054490;28;20025;-87
2023/09/28 02:52:36;;;;;;;8.55;4.30;;;13.50;55.90;;;;;;5054873;28;20029;-87
2023/09/28 02:55:04;;;;;;;6.05;4.15;;;13.50;55.40;;;;;;5054115;28;20055;-87
2023/09/28 02:57:29;;;;;;;5.63;4.18;;;13.60;54.50;;;;;;5054764;28;20023;-84
2023/09/28 02:59:55;;;;;;;7.68;4.57;;;13.60;54.70;;;;;;5054027;28;20029;-87
2023/09/28 03:02:21;;;;;;;7.57;4.18;;;13.60;54.20;;;;;;5053766;28;20017;-88
2023/09/28 03:04:46;;;;;;;5.82;3.78;;;13.70;54.00;;;;;;5054349;28;20060;-85
2023/09/28 03:07:12;;;;;;;6.18;4.30;;;13.70;54.10;;;;;;5054202;28;20044;-88
2023/09/28 03:09:37;;;;;;;8.30;4.40;;;13.70;53.90;;;;;;5032599;28;20017;-83
2023/09/28 03:12:03;;;;;;;7.43;4.75;;;13.80;54.10;;;;;;5050134;28;20029;-88
2023/09/28 03:14:29;;;;;;;6.10;4.20;;;13.80;53.50;;;;;;5035440;28;20440;-83
2023/09/28 03:16:54;;;;;;;8.52;4.35;;;13.80;53.30;;;;;;5053441;28;20021;-88
2023/09/28 03:19:20;;;;;;;7.35;4.20;;;13.80;53.00;;;;;;5053697;28;20481;-88
2023/09/28 03:21:45;;;;;;;4.97;4.00;;;13.80;52.90;;;;;;5053530;28;20440;-87
2023/09/28 03:24:11;;;;;;;5.82;4.47;;;13.90;53.30;;;;;;5053544;28;20032;-88
2023/09/28 03:26:38;;;;;;;5.88;4.70;;;13.90;53.20;;;;;;5054370;28;20462;-87
2023/09/28 03:29:04;;;;;;;4.88;4.00;;;13.90;53.10;;;;;;5054668;28;20049;-87
2023/09/28 03:31:32;;;;;;;6.93;4.38;;;13.90;53.40;;;;;;5053800;28;20013;-89
2023/09/28 03:33:58;;;;;;;5.32;4.00;;;13.80;54.00;;;;;;5053866;28;20027;-86
2023/09/28 03:36:25;;;;;;;6.13;4.30;;;13.80;54.20;;;;;;5053722;28;20032;-89
2023/09/28 03:38:50;;;;;;;7.25;4.63;;;13.80;54.00;;;;;;5053931;28;20047;-88
2023/09/28 03:41:17;;;;;;;6.50;4.43;;;13.80;54.10;;;;;;5053990;28;20029;-89
2023/09/28 03:43:44;;;;;;;9.60;4.60;;;13.80;54.00;;;;;;5053854;28;20029;-87
2023/09/28 03:46:09;;;;;;;7.43;4.68;;;13.80;54.30;;;;;;5053884;28;20025;-87
2023/09/28 03:48:35;;;;;;;6.88;3.92;;;13.80;54.00;;;;;;5053690;28;20491;-89
2023/09/28 03:51:01;;;;;;;7.78;4.65;;;13.90;54.30;;;;;;5053666;28;20013;-88
2023/09/28 03:53:27;;;;;;;6.18;4.50;;;13.80;54.10;;;;;;5053749;28;20027;-87
2023/09/28 03:55:53;;;;;;;5.45;4.15;;;13.80;53.80;;;;;;5055379;28;20436;-88
2023/09/28 03:58:18;;;;;;;7.47;4.88;;;13.80;53.80;;;;;;5056970;28;20017;-89
2023/09/28 04:00:44;;;;;;;7.13;5.07;;;13.90;53.80;;;;;;5057160;28;20055;-90
2023/09/28 04:03:11;;;;;;;10.38;7.47;;;13.90;54.10;;;;;;5056771;28;20114;-86
2023/09/28 04:05:37;;;;;;;6.93;4.82;;;13.90;54.40;;;;;;5056850;28;20025;-83
2023/09/28 04:08:03;;;;;;;8.52;5.18;;;13.90;54.70;;;;;;5056859;28;20032;-86
2023/09/28 04:10:28;;;;;;;8.60;5.30;;;13.90;55.80;;;;;;5056772;28;20021;-88
2023/09/28 04:12:54;;;;;;;10.43;5.43;;;13.90;56.40;;;;;;5039204;28;20388;-83
2023/09/28 04:15:21;;;;;;;7.80;5.47;;;13.90;56.60;;;;;;5057236;28;20043;-85
2023/09/28 04:17:46;;;;;;;8.02;5.78;;;13.80;56.60;;;;;;5057512;28;20469;-87
2023/09/28 04:20:13;;;;;;;6.40;5.03;;;13.80;56.20;;;;;;5039606;28;20025;-83
2023/09/28 04:22:39;;;;;;;7.47;5.00;;;13.80;55.20;;;;;;5059359;28;20021;-82
2023/09/28 04:25:05;;;;;;;7.15;5.53;;;13.80;56.30;;;;;;5070546;28;20017;-83
2023/09/28 04:27:31;;;;;;;8.02;5.53;;;13.80;55.30;;;;;;5069451;28;20112;-84
2023/09/28 04:29:57;;;;;;;9.20;5.43;;;13.80;55.20;;;;;;5060054;28;20574;-88
2023/09/28 04:32:22;;;;;;;7.35;5.13;;;13.80;55.60;;;;;;5058350;28;20028;-85
2023/09/28 04:34:48;;;;;;;6.85;5.10;;;13.90;55.50;;;;;;5057151;28;20116;-88
2023/09/28 04:37:16;;;;;;;6.60;5.20;;;13.90;55.50;;;;;;5058014;28;20088;-89
2023/09/28 04:39:41;;;;;;;6.93;5.30;;;13.90;55.10;;;;;;5057731;28;20052;-86
2023/09/28 04:42:07;;;;;;;8.48;5.43;;;13.90;54.10;;;;;;5056270;28;20067;-88
2023/09/28 04:44:32;;;;;;;8.85;5.85;;;13.90;54.00;;;;;;5057005;28;20029;-87
2023/09/28 04:46:58;;;;;;;8.93;5.78;;;14.00;53.90;;;;;;5056813;28;20053;-88
2023/09/28 04:49:24;;;;;;;9.63;6.03;;;14.00;54.20;;;;;;5056924;28;20032;-84
2023/09/28 04:51:49;;;;;;;9.75;5.38;;;14.00;54.80;;;;;;5056014;28;20040;-85
2023/09/28 04:54:15;;;;;;;6.90;5.07;;;14.00;54.40;;;;;;5055980;28;20147;-86
2023/09/28 04:56:41;;;;;;;8.07;5.18;;;14.00;54.00;;;;;;5039071;28;20029;-89
2023/09/28 04:59:06;;;;;;;11.48;5.30;;;14.10;53.60;;;;;;5056541;28;20028;-84
2023/09/28 05:01:32;;;;;;;7.13;4.95;;;14.10;53.50;;;;;;5056744;28;20025;-86
2023/09/28 05:03:59;;;;;;;8.63;5.05;;;14.20;53.60;;;;;;5056394;28;20073;-87
2023/09/28 05:06:24;;;;;;;7.72;5.47;;;14.10;53.70;;;;;;5055959;28;20098;-88
2023/09/28 05:08:50;;;;;;;8.27;5.07;;;14.20;54.20;;;;;;5038851;28;20461;-89
2023/09/28 05:11:16;;;;;;;7.65;5.57;;;14.10;54.70;;;;;;5056830;28;20025;-84
2023/09/28 05:13:42;;;;;;;9.90;5.47;;;14.10;54.60;;;;;;5055941;28;20028;-90
2023/09/28 05:16:08;;;;;;;10.32;5.05;;;14.10;54.90;;;;;;5038331;28;20032;-89
2023/09/28 05:18:35;;;;;;;10.52;5.85;;;14.10;55.20;;;;;;5056114;28;20048;-87
2023/09/28 05:21:01;;;;;;;9.20;5.60;;;14.10;55.30;;;;;;5055568;28;20551;-83
2023/09/28 05:23:26;;;;;;;9.20;5.63;;;14.00;55.60;;;;;;5056598;28;20104;-88
2023/09/28 05:25:52;;;;;;;7.40;5.10;;;14.00;56.30;;;;;;5056934;28;20029;-85
2023/09/28 05:28:17;;;;;;;9.05;5.22;;;14.00;57.10;;;;;;5055416;28;20024;-87
2023/09/28 05:30:43;;;;;;;10.63;4.97;;;13.90;57.70;;;;;;5055241;28;20029;-85
2023/09/28 05:33:09;;;;;;;10.95;5.53;;;13.90;58.30;;;;;;5055528;28;20025;-84
2023/09/28 05:35:34;;;;;;;8.50;5.10;;;13.90;57.60;;;;;;5055157;28;20040;-83
2023/09/28 05:38:00;;;;;;;8.48;5.00;;;13.90;57.30;;;;;;5054366;28;20021;-83
2023/09/28 05:40:25;;;;;;;7.22;4.60;;;13.90;56.90;;;;;;5055184;28;20083;-87
2023/09/28 05:42:51;;;;;;;8.07;4.57;;;14.00;56.60;;;;;;5055069;28;20440;-87
2023/09/28 05:45:17;;;;;;;8.38;5.00;;;14.00;56.80;;;;;;5066817;28;20055;-81
2023/09/28 05:47:43;;;;;;;7.95;4.60;;;14.00;56.80;;;;;;5069624;28;20128;-82
2023/09/28 05:50:08;;;;;;;7.90;4.78;;;14.00;57.00;;;;;;5072004;28;20024;-86
2023/09/28 05:52:34;;;;;;;7.40;4.20;;;14.10;56.80;;;;;;5054679;28;20053;-85
2023/09/28 05:55:00;;;;;;;10.20;5.28;;;14.10;57.20;;;;;;5054930;28;20432;-85
2023/09/28 05:57:26;;;;;;;8.30;5.05;;;14.10;57.00;;;;;;5054433;28;20488;-83
2023/09/28 05:59:52;;;;;;;7.68;4.32;;;14.10;56.80;;;;;;5054749;28;20029;-86
2023/09/28 06:02:19;;;;;;;8.63;4.72;;;14.10;56.90;;;;;;5054172;28;20369;-85
2023/09/28 06:04:45;;;;;;;6.93;4.82;;;14.20;56.90;;;;;;5054739;28;20519;-84
2023/09/28 06:07:10;;;;;;;7.03;4.30;;;14.20;56.70;;;;;;5053808;28;20028;-86
2023/09/28 06:09:38;;;;;;;6.90;4.50;;;14.20;56.60;;;;;;5053828;28;20025;-81
2023/09/28 06:12:05;;;;;;;6.32;4.40;;;14.30;56.20;;;;;;5053550;28;20025;-85
2023/09/28 06:14:31;;;;;;;8.80;4.78;;;14.30;56.10;;;;;;5053480;28;20029;-80
2023/09/28 06:16:57;;;;;;;5.70;3.63;;;14.40;55.60;;;;;;5036268;28;20032;-85
2023/09/28 06:19:23;;;;;;;8.10;4.50;;;14.50;55.60;;;;;;5052598;28;20528;-81
2023/09/28 06:21:48;;;;;;;9.13;4.43;;;14.60;54.90;;;;;;5053716;28;20044;-84
2023/09/28 06:24:14;;;;;;;10.05;5.05;;;14.70;54.40;;;;;;5054007;28;20122;-82
2023/09/28 06:26:40;;;;;;;5.75;4.43;;;14.80;54.50;;;;;;5053887;28;20480;-85
2023/09/28 06:29:06;;;;;;;8.13;4.63;;;14.90;54.50;;;;;;5055188;28;20100;-81
2023/09/28 06:31:31;;;;;;;7.80;4.70;;;14.90;54.00;;;;;;5055741;28;20049;-86
2023/09/28 06:33:57;;;;;;;9.00;4.45;;;15.00;54.30;;;;;;5055654;28;20096;-84
2023/09/28 06:36:25;;;;;;;8.15;4.13;;;15.00;54.90;;;;;;5057247;28;20358;-85
2023/09/28 06:38:51;;;;;;;5.72;4.38;;;15.00;54.40;;;;;;5056365;28;20496;-83
2023/09/28 06:41:17;;;;;;;7.57;4.22;;;15.10;54.60;;;;;;5056393;28;20025;-79
2023/09/28 06:43:42;;;;;;;6.13;4.32;;;15.10;54.80;;;;;;5055812;28;20028;-82
2023/09/28 06:46:08;;;;;;;5.55;4.20;;;15.20;55.90;;;;;;5055786;28;20032;-87
2023/09/28 06:48:34;;;;;;;8.82;4.43;;;15.30;55.30;;;;;;5052388;28;20072;-80
2023/09/28 06:51:00;;;;;;;7.07;4.25;;;15.40;55.40;;;;;;5053532;28;20489;-84
2023/09/28 06:53:26;;;;;;;8.90;4.43;;;15.40;55.20;;;;;;5053504;28;20029;-80
2023/09/28 06:55:53;;;;;;;25.27;5.53;;;15.50;55.80;;;;;;5053003;28;20196;-79
2023/09/28 06:58:19;;;;;;;9.18;4.55;;;15.60;57.30;;;;;;5052377;28;20075;-79
2023/09/28 07:00:45;;;;;;;7.72;4.90;;;15.70;56.30;;;;;;5052282;28;20036;-79
2023/09/28 07:03:11;;;;;;;6.97;4.30;;;15.80;54.70;;;;;;5052026;28;20028;-79
2023/09/28 07:05:37;;;;;;;8.70;4.75;;;15.90;56.20;;;;;;5052263;28;20415;-79
2023/09/28 07:08:05;;;;;;;9.45;4.88;;;16.10;57.50;;;;;;5052018;28;20106;-79
2023/09/28 07:10:35;;;;;;;6.78;3.97;;;16.30;57.70;;;;;;5051881;28;20047;-79
2023/09/28 07:13:04;;;;;;;10.63;4.63;;;16.40;57.60;;;;;;5051765;28;20060;-78
2023/09/28 07:15:30;;;;;;;12.38;4.57;;;16.50;57.00;;;;;;5052211;28;20036;-79
2023/09/28 07:17:56;;;;;;;12.27;5.32;;;16.60;56.30;;;;;;5052490;28;20035;-80
2023/09/28 07:20:22;;;;;;;10.05;4.63;;;16.70;56.30;;;;;;5052302;28;20381;-80
2023/09/28 07:22:48;;;;;;;7.60;4.43;;;16.80;56.30;;;;;;5053260;28;20031;-83
2023/09/28 07:25:14;;;;;;;11.82;4.97;;;16.80;55.80;;;;;;5053579;28;20025;-84
2023/09/28 07:27:41;;;;;;;8.80;4.40;;;16.90;55.30;;;;;;5053242;28;20025;-77
2023/09/28 07:30:08;;;;;;;10.35;4.72;;;16.90;54.90;;;;;;5055378;28;20024;-85
2023/09/28 07:32:34;;;;;;;9.43;4.78;;;16.90;55.40;;;;;;5057628;28;20032;-84
2023/09/28 07:35:01;;;;;;;8.07;4.32;;;17.00;55.40;;;;;;5057848;28;20492;-85
2023/09/28 07:37:29;;;;;;;6.85;4.38;;;17.20;55.00;;;;;;5057162;28;20388;-85
2023/09/28 07:39:55;;;;;;;7.15;4.07;;;17.30;54.70;;;;;;5056721;28;20025;-82
2023/09/28 07:42:20;;;;;;;6.47;3.28;;;17.40;54.70;;;;;;5057105;28;20028;-81
2023/09/28 07:44:47;;;;;;;8.95;4.20;;;17.50;54.70;;;;;;5056744;28;20053;-85
2023/09/28 07:47:13;;;;;;;7.57;4.40;;;17.60;54.20;;;;;;5056783;28;20225;-81
2023/09/28 07:49:40;;;;;;;5.30;3.67;;;17.70;53.50;;;;;;5056873;28;20071;-78
2023/09/28 07:52:08;;;;;;;8.90;4.35;;;17.80;53.50;;;;;;5056954;28;20071;-84
2023/09/28 07:54:35;;;;;;;6.07;3.40;;;17.90;53.50;;;;;;5056333;28;20036;-77
2023/09/28 07:57:04;;;;;;;9.98;4.60;;;18.00;53.60;;;;;;5056582;28;20040;-82
2023/09/28 07:59:33;;;;;;;5.50;3.10;;;18.10;53.20;;;;;;5056899;28;20393;-85
2023/09/28 08:01:59;;;;;;;9.88;3.88;;;18.20;53.00;;;;;;5056783;28;20017;-86
2023/09/28 08:04:25;;;;;;;10.50;4.38;;;18.30;52.60;;;;;;5038348;28;20021;-86
2023/09/28 08:06:51;;;;;;;7.13;3.40;;;18.30;52.30;;;;;;5056687;28;20035;-82
2023/09/28 08:09:19;;;;;;;5.95;3.83;;;18.40;51.90;;;;;;5056468;28;20108;-80
2023/09/28 08:11:48;;;;;;;6.63;3.63;;;18.60;52.00;;;;;;5057309;28;20017;-79
2023/09/28 08:14:15;;;;;;;7.72;3.50;;;18.70;51.90;;;;;;5057096;28;20021;-80
2023/09/28 08:16:42;;;;;;;5.35;3.33;;;18.90;52.00;;;;;;5055478;28;20385;-75
2023/09/28 08:19:08;;;;;;;5.43;3.13;;;19.00;52.20;;;;;;5055740;28;20041;-75
2023/09/28 08:21:37;;;;;;;5.85;3.30;;;19.20;51.90;;;;;;5037791;28;20029;-78
2023/09/28 08:24:03;;;;;;;4.72;3.10;;;19.30;51.30;;;;;;5055780;28;20049;-80
2023/09/28 08:26:30;;;;;;;4.60;3.10;;;19.50;51.70;;;;;;5055983;28;20021;-81
2023/09/28 08:28:57;;;;;;;4.22;2.72;;;19.70;52.10;;;;;;5055695;28;20048;-78
2023/09/28 08:31:23;;;;;;;6.32;2.60;;;19.90;50.40;;;;;;5055885;28;20025;-86
2023/09/28 08:33:49;;;;;;;7.88;3.20;;;20.10;50.60;;;;;;5055999;28;20055;-77
2023/09/28 08:36:15;;;;;;;5.00;3.13;;;20.20;53.20;;;;;;5055648;28;20051;-77
2023/09/28 08:38:41;;;;;;;5.18;2.47;;;20.30;53.30;;;;;;5054116;28;20021;-74
2023/09/28 08:41:10;;;;;;;6.80;2.58;;;20.40;53.60;;;;;;5054634;28;20545;-84
2023/09/28 08:43:41;;;;;;;5.43;3.00;;;20.50;53.30;;;;;;5055910;28;20029;-87
2023/09/28 08:46:11;;;;;;;3.20;2.53;;;20.70;53.00;;;;;;5055812;28;20044;-80
2023/09/28 08:48:42;;;;;;;3.38;2.30;;;20.90;53.20;;;;;;5055930;28;20056;-82
2023/09/28 08:51:10;;;;;;;4.93;2.50;;;21.10;52.80;;;;;;5037230;28;20106;-79
2023/09/28 08:53:40;;;;;;;3.83;2.28;;;21.30;51.10;;;;;;5055301;28;20052;-73
2023/09/28 08:56:07;;;;;;;4.05;2.35;;;21.40;48.30;;;;;;5055294;28;20090;-78
2023/09/28 08:58:36;;;;;;;3.63;2.50;;;21.60;48.10;;;;;;5056238;28;20024;-78
2023/09/28 09:01:04;;;;;;;4.68;2.42;;;21.80;45.70;;;;;;5057471;28;20116;-79
2023/09/28 09:03:31;;;;;;;7.88;2.50;;;22.00;45.80;;;;;;5055086;28;20064;-76
2023/09/28 09:05:57;;;;;;;4.07;2.80;;;22.20;44.80;;;;;;5055366;28;20032;-81
2023/09/28 09:08:24;;;;;;;3.72;2.15;;;22.30;44.30;;;;;;5054834;28;20100;-75
2023/09/28 09:10:51;;;;;;;4.85;3.03;;;22.50;44.40;;;;;;5054839;28;20166;-84
2023/09/28 09:13:20;;;;;;;5.47;3.15;;;22.70;43.80;;;;;;5054860;28;20025;-74
2023/09/28 09:15:46;;;;;;;4.03;2.60;;;22.90;43.80;;;;;;5053815;28;20040;-86
2023/09/28 09:18:19;;;;;;;2.55;2.28;;;23.10;41.90;;;;;;5054275;28;20474;-80
2023/09/28 09:20:49;;;;;;;2.28;1.83;;;23.30;41.00;;;;;;5054220;28;20029;-84
2023/09/28 09:23:16;;;;;;;2.67;2.00;;;23.50;39.20;;;;;;5054748;28;20472;-78
2023/09/28 09:25:44;;;;;;;2.90;2.05;;;23.70;38.20;;;;;;5054566;28;20063;-78
2023/09/28 09:28:12;;;;;;;3.17;1.88;;;23.80;36.20;;;;;;5054798;28;20093;-84
2023/09/28 09:30:37;;;;;;;4.40;2.35;;;24.00;35.40;;;;;;5054453;28;20029;-83
2023/09/28 09:33:07;;;;;;;2.92;2.17;;;24.10;35.50;;;;;;5054799;28;20496;-82
2023/09/28 09:35:33;;;;;;;4.85;2.22;;;24.20;35.50;;;;;;5054564;28;20041;-86
2023/09/28 09:37:59;;;;;;;3.88;2.10;;;24.30;35.00;;;;;;5036744;28;20025;-85
2023/09/28 09:40:25;;;;;;;2.80;2.35;;;24.50;33.70;;;;;;5053502;28;20444;-85
2023/09/28 09:42:51;;;;;;;3.00;1.90;;;24.50;34.90;;;;;;5054831;28;20132;-85
2023/09/28 09:45:19;;;;;;;3.63;2.08;;;24.50;33.50;;;;;;5054208;28;20106;-83
2023/09/28 09:47:49;;;;;;;2.75;2.10;;;24.70;32.70;;;;;;5054091;28;20127;-82
2023/09/28 09:50:16;;;;;;;2.28;1.60;;;24.60;32.50;;;;;;5054863;28;20031;-82
2023/09/28 09:52:44;;;;;;;4.13;1.73;;;24.70;32.90;;;;;;5063886;28;20513;-85
2023/09/28 09:55:10;;;;;;;2.47;1.50;;;24.80;31.10;;;;;;5067283;28;20036;-82
2023/09/28 09:57:42;;;;;;;2.30;1.50;;;25.00;28.00;;;;;;5068535;28;20040;-84
2023/09/28 10:00:08;;;;;;;1.67;1.25;;;25.10;27.20;;;;;;5055334;28;20556;-81
2023/09/28 10:02:39;;;;;;;1.38;1.00;;;25.20;24.70;;;;;;5055587;28;20083;-85
2023/09/28 10:05:12;;;;;;;1.33;1.17;;;25.40;23.40;;;;;;5057249;28;20036;-85
2023/09/28 10:07:41;;;;;;;2.00;1.45;;;25.60;24.60;;;;;;5057312;28;20104;-88
2023/09/28 10:10:07;;;;;;;2.53;1.63;;;25.80;26.50;;;;;;5057569;28;20029;-84
2023/09/28 10:12:34;;;;;;;2.03;1.67;;;26.10;28.70;;;;;;5065076;28;20017;-80
2023/09/28 10:15:01;;;;;;;1.52;1.40;;;26.20;29.30;;;;;;5068921;28;20058;-83
2023/09/28 10:17:28;;;;;;;1.90;1.65;;;26.50;29.00;;;;;;5060719;28;20123;-87
2023/09/28 10:19:57;;;;;;;3.33;1.58;;;26.70;27.60;;;;;;5056635;28;20515;-86
2023/09/28 10:22:23;;;;;;;1.80;1.33;;;26.90;26.10;;;;;;5057207;28;20316;-87
2023/09/28 10:24:48;;;;;;;1.15;0.98;;;27.10;26.80;;;;;;5060779;28;20029;-86
2023/09/28 10:27:14;;;;;;;1.20;1.10;;;27.30;25.10;;;;;;5041524;28;20032;-87
2023/09/28 10:29:41;;;;;;;2.15;1.48;;;27.30;25.00;;;;;;5060544;28;20036;-87
2023/09/28 10:32:15;;;;;;;1.73;1.33;;;27.60;25.20;;;;;;5061128;28;20100;-88
2023/09/28 10:34:43;;;;;;;2.67;1.40;;;27.70;24.10;;;;;;5057417;28;20415;-86
2023/09/28 10:37:13;;;;;;;2.08;1.25;;;27.80;24.60;;;;;;5035997;28;20488;-77
2023/09/28 10:39:41;;;;;;;2.60;1.08;;;28.00;23.90;;;;;;5053551;28;20025;-84
2023/09/28 10:42:12;;;;;;;1.88;1.35;;;28.20;23.90;;;;;;5053146;28;20028;-82
2023/09/28 10:44:46;;;;;;;2.78;1.30;;;28.40;22.70;;;;;;5035783;28;20032;-83
2023/09/28 10:47:12;;;;;;;2.85;1.25;;;28.50;22.40;;;;;;5052882;28;20040;-80
2023/09/28 10:49:39;;;;;;;1.45;1.02;;;28.50;21.80;;;;;;5052350;28;20389;-77
2023/09/28 10:52:09;;;;;;;1.85;1.33;;;28.50;22.30;;;;;;5051583;28;20021;-77
2023/09/28 10:54:34;;;;;;;3.05;1.15;;;28.60;23.90;;;;;;5046816;28;20029;-78
2023/09/28 10:57:02;;;;;;;2.25;1.33;;;28.70;24.70;;;;;;5049388;28;20017;-78
2023/09/28 10:59:29;;;;;;;2.55;1.30;;;28.70;26.00;;;;;;5041504;28;20021;-77
2023/09/28 11:01:54;;;;;;;2.47;0.88;;;28.80;23.40;;;;;;5049676;28;20021;-76
2023/09/28 11:04:22;;;;;;;1.13;1.00;;;28.80;21.40;;;;;;5050075;28;20072;-76
2023/09/28 11:06:49;;;;;;;0.73;0.70;;;28.90;20.40;;;;;;5054798;28;20063;-76
2023/09/28 11:09:18;;;;;;;1.15;1.05;;;29.10;21.60;;;;;;5054882;28;20013;-76
2023/09/28 11:11:49;;;;;;;1.00;0.85;;;29.30;22.10;;;;;;5050099;28;20516;-76
2023/09/28 11:14:14;;;;;;;1.55;1.02;;;29.60;20.70;;;;;;5052898;28;20553;-76
2023/09/28 11:16:42;;;;;;;0.88;0.80;;;29.60;19.60;;;;;;5054701;28;20108;-76
2023/09/28 11:19:19;;;;;;;1.13;0.90;;;29.70;19.60;;;;;;5056286;28;20157;-76
2023/09/28 11:21:45;;;;;;;0.70;0.70;;;30.00;20.20;;;;;;5055101;28;20035;-75
2023/09/28 11:24:14;;;;;;;4.68;1.73;;;30.20;19.90;;;;;;5055878;28;20025;-76
2023/09/28 11:26:39;;;;;;;3.10;0.80;;;30.40;20.00;;;;;;5055674;28;20104;-76
2023/09/28 11:29:05;;;;;;;2.55;0.88;;;30.60;19.00;;;;;;5055938;28;20025;-75
2023/09/28 11:31:35;;;;;;;1.77;0.93;;;30.70;19.50;;;;;;5055722;28;20029;-76
2023/09/28 11:34:03;;;;;;;3.13;2.13;;;30.80;19.70;;;;;;5055862;28;20032;-76
2023/09/28 11:36:29;;;;;;;3.03;1.40;;;31.00;20.80;;;;;;5056032;28;20017;-76
2023/09/28 11:38:55;;;;;;;2.63;1.55;;;31.30;19.10;;;;;;5055728;28;20025;-76
2023/09/28 11:41:22;;;;;;;4.20;0.95;;;31.40;18.30;;;;;;5053626;28;20021;-76
2023/09/28 11:43:52;;;;;;;2.05;0.90;;;31.60;19.20;;;;;;5055165;28;20017;-75
2023/09/28 11:46:20;;;;;;;1.75;0.80;;;31.70;18.50;;;;;;5037553;28;20029;-75
2023/09/28 11:48:45;;;;;;;1.90;0.90;;;31.70;17.60;;;;;;5055610;28;20029;-73
2023/09/28 11:51:14;;;;;;;0.88;0.80;;;31.70;18.90;;;;;;5055721;28;20029;-75
2023/09/28 11:53:41;;;;;;;1.17;0.88;;;31.80;17.60;;;;;;5055532;28;20462;-74
2023/09/28 11:56:08;;;;;;;0.93;0.93;;;31.60;18.30;;;;;;5055286;28;20032;-74
2023/09/28 11:58:34;;;;;;;1.27;0.82;;;31.20;19.00;;;;;;5037544;28;20032;-74
2023/09/28 12:01:00;;;;;;;1.20;0.80;;;31.00;21.00;;;;;;5055774;28;20055;-74
2023/09/28 12:03:26;;;;;;;0.90;0.90;;;31.30;18.90;;;;;;5037257;28;20049;-74
2023/09/28 12:05:52;;;;;;;1.85;1.08;;;31.50;17.80;;;;;;5055597;28;20021;-75
2023/09/28 12:08:17;;;;;;;2.65;1.00;;;31.60;17.90;;;;;;5055720;28;20025;-76
2023/09/28 12:10:43;;;;;;;2.03;1.00;;;31.70;17.90;;;;;;5055616;28;20025;-77
2023/09/28 12:13:10;;;;;;;0.65;0.65;;;31.80;17.50;;;;;;5055618;28;20489;-76
2023/09/28 12:15:37;;;;;;;0.90;0.90;;;31.80;17.10;;;;;;5054950;28;20033;-76
2023/09/28 12:18:02;;;;;;;0.98;0.88;;;31.80;17.50;;;;;;5054487;28;20020;-77
2023/09/28 12:20:29;;;;;;;1.40;0.90;;;31.80;17.70;;;;;;5055326;28;20025;-77
2023/09/28 12:22:55;;;;;;;1.63;0.88;;;32.00;17.50;;;;;;5055528;28;20385;-77
2023/09/28 12:25:23;;;;;;;1.67;1.10;;;32.10;17.50;;;;;;5055405;28;20020;-77
2023/09/28 12:27:49;;;;;;;5.55;1.15;;;32.30;17.10;;;;;;5055094;28;20111;-77
2023/09/28 12:30:21;;;;;;;2.45;1.00;;;32.50;18.20;;;;;;5055179;28;20390;-77
2023/09/28 12:32:47;;;;;;;2.10;1.27;;;32.50;17.70;;;;;;5054692;28;20371;-77
2023/09/28 12:35:13;;;;;;;3.03;1.20;;;32.30;17.40;;;;;;5054900;28;20033;-78
2023/09/28 12:37:39;;;;;;;1.77;1.27;;;32.00;17.60;;;;;;5055096;28;20021;-78
2023/09/28 12:40:11;;;;;;;1.15;0.90;;;32.00;18.50;;;;;;5055121;28;20040;-76
2023/09/28 12:42:37;;;;;;;2.75;1.20;;;32.10;18.30;;;;;;5054540;28;20017;-77
2023/09/28 12:45:03;;;;;;;1.70;1.30;;;32.20;18.40;;;;;;5054576;28;20100;-76